createdAt,value
2019-03-03T00:00:14.716Z,4.80
2019-03-03T00:02:42.973Z,4.33
2019-03-03T00:05:11.237Z,4.50
2019-03-03T00:07:39.484Z,4.35
2019-03-03T00:10:09.676Z,4.57
2019-03-03T00:12:37.930Z,4.30
2019-03-03T00:15:08.832Z,4.28
2019-03-03T00:17:37.122Z,4.40
2019-03-03T00:20:13.627Z,4.07
2019-03-03T00:22:41.846Z,4.53
2019-03-03T00:25:11.637Z,4.80
2019-03-03T00:27:39.864Z,4.70
2019-03-03T00:30:11.378Z,4.23
2019-03-03T00:32:39.647Z,4.30
2019-03-03T00:35:09.005Z,4.67
2019-03-03T00:37:55.194Z,4.17
2019-03-03T00:40:28.157Z,4.33
2019-03-03T00:43:16.061Z,4.40
2019-03-03T00:45:48.630Z,4.10
2019-03-03T00:48:24.644Z,4.33
2019-03-03T00:50:54.528Z,4.37
2019-03-03T00:53:24.384Z,4.17
2019-03-03T00:55:54.300Z,4.33
2019-03-03T00:58:24.189Z,4.20
2019-03-03T01:01:06.026Z,4.30
2019-03-03T01:03:48.213Z,4.47
2019-03-03T01:06:33.386Z,4.20
2019-03-03T01:09:06.464Z,4.00
2019-03-03T01:11:42.274Z,4.57
2019-03-03T01:14:21.135Z,4.20
2019-03-03T01:17:03.253Z,4.17
2019-03-03T01:19:33.138Z,4.10
2019-03-03T01:22:03.009Z,4.13
2019-03-03T01:24:49.257Z,3.87
2019-03-03T01:27:17.516Z,4.63
2019-03-03T01:29:45.755Z,3.63
2019-03-03T01:32:14.032Z,4.10
2019-03-03T01:34:42.311Z,4.20
2019-03-03T01:37:10.553Z,3.90
2019-03-03T01:39:38.813Z,3.93
2019-03-03T01:42:07.033Z,3.77
2019-03-03T01:44:35.280Z,3.57
2019-03-03T01:47:03.543Z,4.07
2019-03-03T01:49:31.791Z,3.90
2019-03-03T01:52:00.032Z,4.20
2019-03-03T01:54:28.289Z,3.80
2019-03-03T01:56:56.518Z,4.00
2019-03-03T01:59:24.783Z,4.13
2019-03-03T02:01:53.060Z,3.57
2019-03-03T02:04:21.298Z,3.97
2019-03-03T02:10:21.421Z,3.60
2019-03-03T02:12:49.936Z,3.90
2019-03-03T02:15:18.172Z,3.70
2019-03-03T02:17:46.425Z,3.87
2019-03-03T02:20:14.671Z,3.60
2019-03-03T02:22:42.933Z,3.60
2019-03-03T02:25:12.914Z,3.90
2019-03-03T02:27:41.445Z,3.50
2019-03-03T02:30:18.090Z,3.90
2019-03-03T02:32:46.377Z,3.93
2019-03-03T02:35:14.624Z,3.67
2019-03-03T02:37:42.874Z,3.70
2019-03-03T02:40:14.170Z,3.63
2019-03-03T02:42:42.456Z,3.93
2019-03-03T02:45:13.139Z,3.50
2019-03-03T02:47:41.386Z,3.60
2019-03-03T02:50:16.220Z,3.70
2019-03-03T02:52:44.476Z,3.87
2019-03-03T02:55:17.231Z,3.30
2019-03-03T02:57:45.485Z,3.30
2019-03-03T03:00:19.879Z,3.20
2019-03-03T03:02:52.342Z,3.43
2019-03-03T03:05:29.856Z,3.53
2019-03-03T03:08:05.921Z,3.60
2019-03-03T03:10:35.854Z,3.27
2019-03-03T03:13:05.725Z,3.30
2019-03-03T03:15:35.598Z,3.37
2019-03-03T03:18:08.377Z,3.57
2019-03-03T03:20:38.296Z,3.57
2019-03-03T03:23:08.258Z,2.93
2019-03-03T03:25:38.117Z,3.60
2019-03-03T03:28:08.019Z,3.53
2019-03-03T03:30:37.887Z,3.60
2019-03-03T03:33:13.882Z,3.60
2019-03-03T03:35:43.825Z,3.40
2019-03-03T03:38:25.731Z,3.00
2019-03-03T03:41:04.282Z,2.93
2019-03-03T03:43:36.762Z,3.27
2019-03-03T03:46:12.696Z,3.47
2019-03-03T03:48:45.469Z,3.50
2019-03-03T03:51:33.646Z,3.60
2019-03-03T03:54:19.825Z,3.50
2019-03-03T03:56:49.695Z,3.23
2019-03-03T03:59:22.429Z,3.03
2019-03-03T04:01:52.381Z,3.20
2019-03-03T04:04:22.242Z,3.60
2019-03-03T04:07:01.311Z,3.37
2019-03-03T04:09:31.192Z,3.50
2019-03-03T04:12:17.475Z,3.60
2019-03-03T04:14:47.343Z,3.20
2019-03-03T04:17:26.372Z,3.20
2019-03-03T04:20:02.385Z,3.00
2019-03-03T04:22:41.335Z,3.70
2019-03-03T04:25:17.018Z,3.50
2019-03-03T04:27:52.608Z,3.40
2019-03-03T04:30:22.513Z,3.43
2019-03-03T04:33:08.554Z,3.30
2019-03-03T04:35:38.433Z,2.87
2019-03-03T04:38:24.428Z,3.13
2019-03-03T04:40:54.294Z,3.50
2019-03-03T04:43:26.859Z,3.93
2019-03-03T04:45:59.537Z,3.47
2019-03-03T04:48:44.557Z,3.40
2019-03-03T04:51:20.154Z,3.07
2019-03-03T04:54:08.241Z,3.40
2019-03-03T04:56:50.270Z,3.47
2019-03-03T04:59:22.841Z,3.43
2019-03-03T05:01:58.497Z,3.60
2019-03-03T05:04:40.597Z,3.03
2019-03-03T05:07:13.362Z,3.43
2019-03-03T05:09:52.002Z,3.20
2019-03-03T05:12:33.932Z,3.30
2019-03-03T05:15:09.677Z,3.50
2019-03-03T05:17:39.588Z,3.30
2019-03-03T05:20:12.388Z,3.20
2019-03-03T05:22:40.625Z,3.63
2019-03-03T05:25:08.884Z,3.07
2019-03-03T05:27:37.149Z,3.20
2019-03-03T05:30:10.828Z,3.30
2019-03-03T05:32:39.077Z,3.03
2019-03-03T05:35:08.372Z,2.80
2019-03-03T05:37:36.628Z,3.40
2019-03-03T05:40:06.240Z,3.07
2019-03-03T05:42:34.485Z,3.00
2019-03-03T05:45:02.977Z,3.37
2019-03-03T05:47:31.244Z,3.30
2019-03-03T05:49:59.493Z,3.67
2019-03-03T05:52:27.741Z,2.83
2019-03-03T05:54:55.999Z,3.33
2019-03-03T05:57:24.224Z,3.13
2019-03-03T05:59:52.465Z,3.33
2019-03-03T06:02:20.692Z,3.33
2019-03-03T06:04:48.952Z,3.37
2019-03-03T06:07:17.220Z,3.47
2019-03-03T06:09:45.450Z,3.40
2019-03-03T06:12:13.688Z,3.40
2019-03-03T06:14:41.938Z,3.47
2019-03-03T06:17:10.194Z,3.10
2019-03-03T06:19:38.453Z,3.10
2019-03-03T06:22:06.724Z,3.70
2019-03-03T06:24:34.948Z,3.50
2019-03-03T06:27:03.177Z,3.13
2019-03-03T06:29:31.397Z,2.90
2019-03-03T06:31:59.636Z,3.30
2019-03-03T06:34:27.892Z,2.83
2019-03-03T06:36:56.145Z,3.60
2019-03-03T06:39:24.393Z,3.47
2019-03-03T06:41:52.650Z,2.87
2019-03-03T06:44:20.890Z,3.33
2019-03-03T06:46:49.122Z,3.13
2019-03-03T06:49:17.385Z,3.63
2019-03-03T06:51:45.632Z,3.17
2019-03-03T06:54:13.852Z,3.40
2019-03-03T06:56:42.109Z,3.30
2019-03-03T06:59:10.384Z,3.30
2019-03-03T07:01:38.615Z,3.30
2019-03-03T07:04:06.883Z,3.13
2019-03-03T07:06:35.125Z,3.43
2019-03-03T07:09:04.132Z,3.50
2019-03-03T07:11:32.372Z,3.53
2019-03-03T07:14:00.633Z,3.33
2019-03-03T07:16:28.876Z,3.33
2019-03-03T07:18:57.139Z,2.90
2019-03-03T07:21:25.354Z,3.47
2019-03-03T07:23:53.625Z,3.40
2019-03-03T07:26:21.854Z,3.40
2019-03-03T07:28:50.113Z,3.23
2019-03-03T07:31:18.350Z,3.03
2019-03-03T07:33:47.281Z,3.47
2019-03-03T07:36:15.537Z,3.37
2019-03-03T07:38:43.782Z,3.53
2019-03-03T07:41:12.040Z,3.43
2019-03-03T07:43:40.280Z,3.50
2019-03-03T07:46:08.541Z,3.27
2019-03-03T07:48:36.825Z,3.70
2019-03-03T07:51:05.039Z,2.97
2019-03-03T07:53:33.291Z,3.40
2019-03-03T07:56:01.589Z,3.30
2019-03-03T07:58:29.825Z,3.03
2019-03-03T08:00:58.068Z,3.83
2019-03-03T08:03:26.319Z,3.40
2019-03-03T08:05:54.558Z,3.50
2019-03-03T08:08:22.799Z,3.47
2019-03-03T08:10:51.056Z,3.33
2019-03-03T08:13:19.321Z,4.97
2019-03-03T08:15:47.641Z,5.20
2019-03-03T08:18:15.896Z,5.57
2019-03-03T08:20:44.148Z,5.30
2019-03-03T08:23:12.373Z,5.20
2019-03-03T08:25:40.665Z,5.37
2019-03-03T08:28:08.908Z,5.80
2019-03-03T08:30:37.196Z,5.47
2019-03-03T08:33:05.421Z,5.80
2019-03-03T08:35:33.677Z,5.87
2019-03-03T08:38:01.928Z,5.87
2019-03-03T08:40:30.178Z,5.60
2019-03-03T08:43:04.219Z,5.40
2019-03-03T08:45:40.117Z,5.50
2019-03-03T08:48:15.792Z,5.30
2019-03-03T08:50:45.674Z,4.80
2019-03-03T08:53:15.585Z,4.60
2019-03-03T08:56:03.581Z,4.10
2019-03-03T08:58:33.560Z,4.60
2019-03-03T09:01:03.420Z,4.73
2019-03-03T09:03:49.657Z,4.10
2019-03-03T09:06:31.784Z,4.60
2019-03-03T09:09:01.665Z,4.20
2019-03-03T09:11:49.841Z,4.37
2019-03-03T09:14:35.083Z,4.23
2019-03-03T09:17:13.844Z,4.33
2019-03-03T09:19:46.385Z,4.30
2019-03-03T09:22:19.027Z,4.17
2019-03-03T09:25:05.023Z,4.23
2019-03-03T09:27:46.956Z,4.30
2019-03-03T09:30:16.842Z,4.27
2019-03-03T09:32:49.265Z,3.93
2019-03-03T09:35:21.649Z,3.93
2019-03-03T09:38:07.716Z,4.13
2019-03-03T09:40:43.165Z,4.00
2019-03-03T09:43:18.521Z,4.07
2019-03-03T09:46:06.676Z,4.40
2019-03-03T09:48:43.936Z,4.30
2019-03-03T09:52:08.934Z,3.90
2019-03-03T09:54:41.523Z,4.53
2019-03-03T09:57:17.186Z,4.07
2019-03-03T10:00:03.585Z,3.87
2019-03-03T10:02:36.426Z,3.93
2019-03-03T10:05:13.708Z,4.37
2019-03-03T10:07:49.313Z,4.10
2019-03-03T10:10:21.841Z,4.03
2019-03-03T10:13:10.086Z,3.80
2019-03-03T10:15:56.497Z,4.00
2019-03-03T10:18:42.630Z,3.70
2019-03-03T10:21:18.100Z,3.77
2019-03-03T10:24:02.874Z,4.13
2019-03-03T10:26:34.926Z,4.00
2019-03-03T10:29:07.230Z,3.87
2019-03-03T10:31:48.807Z,3.70
2019-03-03T10:34:18.718Z,4.17
2019-03-03T10:37:04.589Z,3.90
2019-03-03T10:39:34.489Z,3.83
2019-03-03T10:42:16.477Z,4.00
2019-03-03T10:44:46.384Z,3.90
2019-03-03T10:47:18.679Z,3.93
2019-03-03T10:50:03.609Z,3.83
2019-03-03T10:52:49.965Z,4.10
2019-03-03T10:55:32.050Z,4.07
2019-03-03T10:58:16.888Z,3.90
2019-03-03T11:00:49.451Z,4.07
2019-03-03T11:03:31.393Z,3.67
2019-03-03T11:06:01.294Z,3.83
2019-03-03T11:08:43.123Z,3.77
2019-03-03T11:11:31.127Z,4.07
2019-03-03T11:14:25.927Z,3.50
2019-03-03T11:17:04.610Z,3.47
2019-03-03T11:19:51.068Z,3.60
2019-03-03T11:22:20.935Z,3.63
2019-03-03T11:25:00.107Z,3.83
2019-03-03T11:27:46.708Z,3.97
2019-03-03T11:30:29.313Z,3.60
2019-03-03T11:33:05.131Z,3.93
2019-03-03T11:35:35.094Z,3.60
2019-03-03T11:38:14.014Z,3.50
2019-03-03T11:40:50.058Z,3.70
2019-03-03T11:43:28.909Z,3.60
2019-03-03T11:45:58.842Z,3.80
2019-03-03T11:48:37.708Z,3.70
2019-03-03T11:51:07.603Z,3.43
2019-03-03T11:53:55.546Z,3.87
2019-03-03T11:56:25.544Z,3.30
2019-03-03T11:58:55.410Z,3.40
2019-03-03T12:01:37.373Z,3.57
2019-03-03T12:04:09.958Z,3.30
2019-03-03T12:06:42.833Z,3.70
2019-03-03T12:09:28.939Z,3.10
2019-03-03T12:12:07.542Z,3.53
2019-03-03T12:14:49.468Z,3.50
2019-03-03T12:17:28.204Z,2.83
2019-03-03T12:20:01.064Z,3.20
2019-03-03T12:22:30.937Z,2.97
2019-03-03T12:25:10.045Z,3.63
2019-03-03T12:27:49.064Z,3.87
2019-03-03T12:30:21.720Z,2.83
2019-03-03T12:32:57.548Z,3.10
2019-03-03T12:35:27.435Z,2.90
2019-03-03T12:38:00.079Z,3.47
2019-03-03T12:40:29.973Z,3.47
2019-03-03T12:42:59.844Z,3.73
2019-03-03T12:45:45.989Z,3.60
2019-03-03T12:48:15.868Z,3.33
2019-03-03T12:50:57.172Z,3.57
2019-03-03T12:53:27.060Z,3.40
2019-03-03T12:55:59.632Z,3.80
2019-03-03T12:58:29.511Z,3.40
2019-03-03T13:01:05.362Z,3.50
2019-03-03T13:03:50.330Z,4.63
2019-03-03T13:06:24.223Z,5.10
2019-03-03T13:08:59.851Z,5.47
2019-03-03T13:11:29.478Z,5.17
2019-03-03T13:14:14.677Z,4.90
2019-03-03T13:16:56.660Z,4.33
2019-03-03T13:19:29.498Z,4.70
2019-03-03T13:22:05.147Z,4.60
2019-03-03T13:24:37.749Z,4.80
2019-03-03T13:27:13.634Z,6.20
2019-03-03T13:29:52.205Z,6.50
2019-03-03T13:32:37.482Z,6.90
2019-03-03T13:35:24.461Z,7.37
2019-03-03T13:37:57.293Z,6.73
2019-03-03T13:40:30.146Z,6.93
2019-03-03T13:42:58.397Z,6.77
2019-03-03T13:45:28.056Z,6.40
2019-03-03T13:47:56.290Z,6.47
2019-03-03T13:50:24.553Z,5.87
2019-03-03T13:52:52.789Z,5.50
2019-03-03T13:55:21.017Z,5.87
2019-03-03T13:57:49.258Z,5.60
2019-03-03T14:00:20.639Z,5.17
2019-03-03T14:02:49.041Z,5.53
2019-03-03T14:05:19.010Z,5.30
2019-03-03T14:07:47.265Z,4.90
2019-03-03T14:10:15.601Z,5.13
2019-03-03T14:12:43.885Z,4.80
2019-03-03T14:15:14.594Z,5.17
2019-03-03T14:17:42.854Z,4.87
2019-03-03T14:20:13.342Z,4.83
2019-03-03T14:22:41.562Z,4.50
2019-03-03T14:25:10.161Z,4.40
2019-03-03T14:27:38.415Z,4.65
2019-03-03T14:30:10.198Z,4.77
2019-03-03T14:32:38.444Z,4.60
2019-03-03T14:35:08.547Z,4.80
2019-03-03T14:37:36.784Z,5.08
2019-03-03T14:40:08.302Z,4.87
2019-03-03T14:42:36.521Z,5.10
2019-03-03T14:45:07.861Z,4.70
2019-03-03T14:47:36.120Z,4.58
2019-03-03T14:50:07.116Z,5.22
2019-03-03T14:52:35.364Z,4.87
2019-03-03T14:55:05.029Z,4.50
2019-03-03T14:57:33.277Z,4.65
2019-03-03T15:00:01.527Z,4.72
2019-03-03T15:02:29.770Z,4.60
2019-03-03T15:04:58.054Z,4.30
2019-03-03T15:07:26.353Z,4.90
2019-03-03T15:09:54.584Z,4.58
2019-03-03T15:12:22.848Z,4.50
2019-03-03T15:14:51.108Z,4.30
2019-03-03T15:17:19.317Z,4.25
2019-03-03T15:19:47.566Z,4.25
2019-03-03T15:22:15.808Z,4.62
2019-03-03T15:24:44.072Z,4.47
2019-03-03T15:27:12.697Z,4.17
2019-03-03T15:29:40.913Z,4.10
2019-03-03T15:32:09.178Z,4.80
2019-03-03T15:34:37.436Z,4.25
2019-03-03T15:37:07.318Z,4.05
2019-03-03T15:39:35.613Z,3.60
2019-03-03T15:42:03.836Z,4.12
2019-03-03T15:44:32.071Z,3.90
2019-03-03T15:47:00.322Z,3.90
2019-03-03T15:49:28.587Z,4.28
2019-03-03T15:51:56.949Z,3.90
2019-03-03T15:54:25.196Z,3.80
2019-03-03T16:00:14.130Z,4.05
2019-03-03T16:02:42.429Z,4.50
2019-03-03T16:05:11.415Z,4.53
2019-03-03T16:07:40.445Z,4.15
2019-03-03T16:10:11.673Z,4.35
2019-03-03T16:12:39.880Z,4.08
2019-03-03T16:15:12.768Z,4.08
2019-03-03T16:17:41.025Z,4.42
2019-03-03T16:20:12.265Z,4.28
2019-03-03T16:22:40.487Z,4.40
2019-03-03T16:25:11.285Z,3.90
2019-03-03T16:27:39.674Z,4.15
2019-03-03T16:30:17.868Z,3.90
2019-03-03T16:32:45.877Z,4.35
2019-03-03T16:35:14.770Z,3.85
2019-03-03T16:37:43.112Z,3.92
2019-03-03T16:40:14.613Z,4.00
2019-03-03T16:42:42.842Z,3.92
2019-03-03T16:45:13.066Z,3.83
2019-03-03T16:47:41.321Z,3.83
2019-03-03T16:50:11.916Z,3.77
2019-03-03T16:52:40.291Z,3.62
2019-03-03T16:55:11.097Z,3.92
2019-03-03T16:57:39.385Z,3.75
2019-03-03T17:00:11.165Z,4.20
2019-03-03T17:02:39.464Z,4.15
2019-03-03T17:05:13.529Z,4.10
2019-03-03T17:07:41.968Z,4.10
2019-03-03T17:10:10.825Z,4.28
2019-03-03T17:12:39.402Z,3.98
2019-03-03T17:15:11.155Z,4.28
2019-03-03T17:17:39.431Z,4.28
2019-03-03T17:20:09.444Z,4.15
2019-03-03T17:22:37.704Z,4.08
2019-03-03T17:25:25.364Z,4.25
2019-03-03T17:27:53.626Z,4.35
2019-03-03T17:30:23.313Z,4.30
2019-03-03T17:32:51.553Z,4.47
2019-03-03T17:35:19.819Z,4.37
2019-03-03T17:37:48.214Z,4.58
2019-03-03T17:40:21.837Z,4.17
2019-03-03T17:42:50.090Z,4.00
2019-03-03T17:45:20.765Z,4.35
2019-03-03T17:47:49.232Z,3.98
2019-03-03T17:50:22.883Z,4.25
2019-03-03T17:52:51.118Z,4.33
2019-03-03T17:55:19.396Z,4.30
2019-03-03T17:57:47.647Z,4.42
2019-03-03T18:00:21.957Z,4.25
2019-03-03T18:02:50.223Z,4.35
2019-03-03T18:05:19.286Z,4.83
2019-03-03T18:07:47.621Z,4.65
2019-03-03T18:10:16.130Z,5.03
2019-03-03T18:12:44.429Z,4.35
2019-03-03T18:15:14.232Z,5.00
2019-03-03T18:17:42.462Z,4.60
2019-03-03T18:20:15.331Z,4.83
2019-03-03T18:22:43.637Z,4.70
2019-03-03T18:32:09.711Z,4.42
2019-03-03T18:34:37.953Z,4.28
2019-03-03T18:37:06.201Z,4.47
2019-03-03T18:39:34.491Z,4.25
2019-03-03T18:42:02.733Z,4.33
2019-03-03T18:44:31.009Z,4.50
2019-03-03T18:46:59.283Z,5.15
2019-03-03T18:49:27.595Z,4.40
2019-03-03T18:51:55.826Z,5.00
2019-03-03T18:54:24.188Z,4.95
2019-03-03T18:56:52.441Z,4.83
2019-03-03T18:59:20.671Z,4.90
2019-03-03T19:01:49.020Z,4.72
2019-03-03T19:04:17.237Z,4.42
2019-03-03T19:06:45.530Z,4.72
2019-03-03T19:09:16.281Z,4.55
2019-03-03T19:11:44.678Z,4.65
2019-03-03T19:14:12.961Z,4.40
2019-03-03T19:16:41.212Z,4.65
2019-03-03T19:19:09.524Z,4.83
2019-03-03T19:21:37.782Z,4.92
2019-03-03T19:24:06.115Z,4.50
2019-03-03T19:26:34.361Z,4.35
2019-03-03T19:29:02.591Z,4.33
2019-03-03T19:31:30.838Z,4.83
2019-03-03T19:33:59.075Z,4.83
2019-03-03T19:36:27.331Z,4.17
2019-03-03T19:38:55.627Z,5.08
2019-03-03T19:41:23.895Z,4.30
2019-03-03T19:43:52.150Z,4.58
2019-03-03T19:46:20.415Z,4.30
2019-03-03T19:48:48.758Z,4.40
2019-03-03T19:51:17.017Z,4.50
2019-03-03T19:53:45.281Z,4.00
2019-03-03T19:56:13.532Z,4.47
2019-03-03T19:58:41.779Z,4.75
2019-03-03T20:01:10.052Z,4.40
2019-03-03T20:03:38.284Z,4.60
2019-03-03T20:06:06.536Z,4.35
2019-03-03T20:08:36.465Z,4.50
2019-03-03T20:11:04.824Z,4.60
2019-03-03T20:13:33.068Z,4.40
2019-03-03T20:16:01.383Z,4.30
2019-03-03T20:18:29.647Z,4.17
2019-03-03T20:20:57.927Z,4.65
2019-03-03T20:23:26.160Z,4.50
2019-03-03T20:25:54.406Z,4.35
2019-03-03T20:28:22.681Z,4.17
2019-03-03T20:30:51.202Z,4.20
2019-03-03T20:33:19.446Z,4.15
2019-03-03T20:35:47.697Z,3.92
2019-03-03T20:38:15.959Z,4.03
2019-03-03T20:40:44.227Z,4.20
2019-03-03T20:43:12.495Z,4.30
2019-03-03T20:45:42.373Z,4.50
2019-03-03T20:48:10.632Z,4.17
2019-03-03T20:50:39.033Z,4.00
2019-03-03T20:53:07.343Z,4.70
2019-03-03T20:55:35.643Z,3.90
2019-03-03T20:58:23.336Z,4.25
2019-03-03T21:00:51.594Z,4.00
2019-03-03T21:03:21.687Z,4.30
2019-03-03T21:10:09.958Z,3.80
2019-03-03T21:12:38.356Z,4.00
2019-03-03T21:15:09.227Z,4.10
2019-03-03T21:17:37.579Z,3.75
2019-03-03T21:20:09.047Z,4.30
2019-03-03T21:22:38.330Z,3.80
2019-03-03T21:25:09.330Z,4.28
2019-03-03T21:27:37.587Z,3.95
2019-03-03T21:30:09.182Z,3.77
2019-03-03T21:32:37.567Z,3.87
2019-03-03T21:35:08.623Z,3.90
2019-03-03T21:37:36.879Z,3.65
2019-03-03T21:40:08.609Z,3.60
2019-03-03T21:42:36.865Z,3.77
2019-03-03T21:45:08.465Z,3.95
2019-03-03T21:47:36.701Z,3.77
2019-03-03T21:50:08.192Z,3.65
2019-03-03T21:52:36.469Z,3.67
2019-03-03T21:55:06.069Z,3.90
2019-03-03T21:57:34.337Z,3.95
2019-03-03T22:00:02.565Z,3.60
2019-03-03T22:02:30.853Z,3.70
2019-03-03T22:04:59.102Z,3.62
2019-03-03T22:07:27.363Z,3.35
2019-03-03T22:09:55.650Z,3.60
2019-03-03T22:12:23.928Z,3.58
2019-03-03T22:14:52.169Z,3.52
2019-03-03T22:17:20.484Z,3.80
2019-03-03T22:19:48.714Z,3.50
2019-03-03T22:22:16.970Z,3.37
2019-03-03T22:24:45.218Z,3.55
2019-03-03T22:27:13.492Z,3.60
2019-03-03T22:29:41.709Z,3.50
2019-03-03T22:32:09.990Z,3.52
2019-03-03T22:34:38.284Z,3.52
2019-03-03T22:37:06.573Z,3.72
2019-03-03T22:39:34.840Z,3.47
2019-03-03T22:42:03.093Z,3.60
2019-03-03T22:44:31.373Z,3.40
2019-03-03T22:46:59.609Z,3.60
2019-03-03T22:49:27.926Z,3.10
2019-03-03T22:51:56.188Z,3.70
2019-03-03T22:54:24.468Z,3.58
2019-03-03T22:56:52.694Z,3.40
2019-03-03T22:59:20.937Z,3.37
2019-03-03T23:01:49.170Z,3.30
2019-03-03T23:04:41.740Z,3.60
2019-03-03T23:07:30.924Z,3.30
2019-03-03T23:10:26.766Z,2.80
2019-03-03T23:13:21.033Z,3.15
2019-03-03T23:16:18.077Z,3.60
2019-03-03T23:19:13.899Z,3.57
2019-03-03T23:21:59.970Z,3.30
2019-03-03T23:24:42.984Z,3.10
2019-03-03T23:27:11.245Z,3.10
2019-03-03T23:29:39.470Z,3.20
2019-03-03T23:32:07.695Z,2.97
2019-03-03T23:34:35.964Z,3.60
2019-03-03T23:37:04.188Z,3.17
2019-03-03T23:39:32.448Z,3.03
2019-03-03T23:42:00.705Z,3.47
2019-03-03T23:44:28.942Z,3.37
2019-03-03T23:46:57.177Z,3.35
2019-03-03T23:49:25.442Z,3.07
2019-03-03T23:51:53.701Z,3.20
2019-03-03T23:54:21.920Z,3.20
2019-03-03T23:56:50.203Z,3.10
2019-03-03T23:59:18.453Z,3.37
